sensor_id;sensor_type;location;lat;lon;timestamp;temperature;humidity
64493;DHT22;50868;24.150;-110.320;2023-08-07T00:01:21;48.70;68.60
64493;DHT22;50868;24.150;-110.320;2023-08-07T00:03:48;49.20;68.50
64493;DHT22;50868;24.150;-110.320;2023-08-07T00:06:15;49.20;68.20
64493;DHT22;50868;24.150;-110.320;2023-08-07T00:08:42;49.50;67.60
64493;DHT22;50868;24.150;-110.320;2023-08-07T00:11:10;48.20;67.20
64493;DHT22;50868;24.150;-110.320;2023-08-07T00:13:37;46.90;68.30
64493;DHT22;50868;24.150;-110.320;2023-08-07T00:16:04;46.40;70.40
64493;DHT22;50868;24.150;-110.320;2023-08-07T00:18:32;46.70;70.30
64493;DHT22;50868;24.150;-110.320;2023-08-07T00:21:00;47.90;69.70
64493;DHT22;50868;24.150;-110.320;2023-08-07T00:23:27;48.80;69.20
64493;DHT22;50868;24.150;-110.320;2023-08-07T00:25:54;48.80;69.00
64493;DHT22;50868;24.150;-110.320;2023-08-07T00:28:21;49.10;68.10
64493;DHT22;50868;24.150;-110.320;2023-08-07T00:30:48;49.20;68.60
64493;DHT22;50868;24.150;-110.320;2023-08-07T00:33:15;49.10;69.20
64493;DHT22;50868;24.150;-110.320;2023-08-07T00:35:43;49.40;68.60
64493;DHT22;50868;24.150;-110.320;2023-08-07T00:38:10;49.50;68.00
64493;DHT22;50868;24.150;-110.320;2023-08-07T00:40:38;49.20;68.20
64493;DHT22;50868;24.150;-110.320;2023-08-07T00:43:06;49.80;68.30
64493;DHT22;50868;24.150;-110.320;2023-08-07T00:45:47;49.70;68.40
64493;DHT22;50868;24.150;-110.320;2023-08-07T00:48:16;49.60;68.70
64493;DHT22;50868;24.150;-110.320;2023-08-07T00:50:44;49.80;68.80
64493;DHT22;50868;24.150;-110.320;2023-08-07T00:53:12;49.00;69.30
64493;DHT22;50868;24.150;-110.320;2023-08-07T00:55:40;49.40;69.10
64493;DHT22;50868;24.150;-110.320;2023-08-07T00:58:07;49.20;68.80
64493;DHT22;50868;24.150;-110.320;2023-08-07T01:00:34;49.30;68.90
64493;DHT22;50868;24.150;-110.320;2023-08-07T01:03:04;48.60;69.70
64493;DHT22;50868;24.150;-110.320;2023-08-07T01:05:32;48.90;69.60
64493;DHT22;50868;24.150;-110.320;2023-08-07T01:07:59;49.00;69.30
64493;DHT22;50868;24.150;-110.320;2023-08-07T01:10:53;48.60;69.80
64493;DHT22;50868;24.150;-110.320;2023-08-07T01:13:42;48.50;70.50
64493;DHT22;50868;24.150;-110.320;2023-08-07T01:19:23;48.30;70.40
64493;DHT22;50868;24.150;-110.320;2023-08-07T01:22:09;47.90;71.10
64493;DHT22;50868;24.150;-110.320;2023-08-07T01:24:39;47.50;71.50
64493;DHT22;50868;24.150;-110.320;2023-08-07T01:35:45;45.50;75.80
64493;DHT22;50868;24.150;-110.320;2023-08-07T01:38:14;45.10;76.10
64493;DHT22;50868;24.150;-110.320;2023-08-07T01:40:42;44.70;76.70
64493;DHT22;50868;24.150;-110.320;2023-08-07T01:43:09;44.10;77.90
64493;DHT22;50868;24.150;-110.320;2023-08-07T01:45:36;43.40;78.80
64493;DHT22;50868;24.150;-110.320;2023-08-07T01:48:04;42.90;79.40
64493;DHT22;50868;24.150;-110.320;2023-08-07T01:50:31;42.10;80.10
64493;DHT22;50868;24.150;-110.320;2023-08-07T01:52:58;41.50;80.90
64493;DHT22;50868;24.150;-110.320;2023-08-07T01:55:26;40.90;82.10
64493;DHT22;50868;24.150;-110.320;2023-08-07T01:57:53;39.70;84.30
64493;DHT22;50868;24.150;-110.320;2023-08-07T02:00:21;39.00;85.50
64493;DHT22;50868;24.150;-110.320;2023-08-07T02:02:48;38.20;87.00
64493;DHT22;50868;24.150;-110.320;2023-08-07T02:05:15;37.50;88.60
64493;DHT22;50868;24.150;-110.320;2023-08-07T02:07:44;36.80;90.10
64493;DHT22;50868;24.150;-110.320;2023-08-07T02:10:11;36.30;90.60
64493;DHT22;50868;24.150;-110.320;2023-08-07T02:12:38;35.80;91.50
64493;DHT22;50868;24.150;-110.320;2023-08-07T02:15:06;35.50;92.00
64493;DHT22;50868;24.150;-110.320;2023-08-07T02:17:34;35.30;92.30
64493;DHT22;50868;24.150;-110.320;2023-08-07T02:20:04;35.10;92.70
64493;DHT22;50868;24.150;-110.320;2023-08-07T02:22:32;34.70;93.40
64493;DHT22;50868;24.150;-110.320;2023-08-07T02:24:59;34.60;93.70
64493;DHT22;50868;24.150;-110.320;2023-08-07T02:27:26;34.50;93.90
64493;DHT22;50868;24.150;-110.320;2023-08-07T02:29:53;34.30;94.40
64493;DHT22;50868;24.150;-110.320;2023-08-07T02:32:20;34.20;94.70
64493;DHT22;50868;24.150;-110.320;2023-08-07T02:34:48;34.20;94.90
64493;DHT22;50868;24.150;-110.320;2023-08-07T02:37:15;34.10;95.10
64493;DHT22;50868;24.150;-110.320;2023-08-07T02:39:43;34.00;95.50
64493;DHT22;50868;24.150;-110.320;2023-08-07T02:42:10;33.90;95.70
64493;DHT22;50868;24.150;-110.320;2023-08-07T02:44:37;33.90;95.80
64493;DHT22;50868;24.150;-110.320;2023-08-07T02:47:04;33.80;96.00
64493;DHT22;50868;24.150;-110.320;2023-08-07T02:49:31;33.70;96.10
64493;DHT22;50868;24.150;-110.320;2023-08-07T02:51:58;33.70;96.20
64493;DHT22;50868;24.150;-110.320;2023-08-07T02:54:25;33.50;96.40
64493;DHT22;50868;24.150;-110.320;2023-08-07T02:56:52;33.70;96.30
64493;DHT22;50868;24.150;-110.320;2023-08-07T02:59:19;33.60;96.30
64493;DHT22;50868;24.150;-110.320;2023-08-07T03:01:47;33.50;96.50
64493;DHT22;50868;24.150;-110.320;2023-08-07T03:04:14;33.30;96.70
64493;DHT22;50868;24.150;-110.320;2023-08-07T03:06:41;33.40;96.80
64493;DHT22;50868;24.150;-110.320;2023-08-07T03:09:08;33.30;97.10
64493;DHT22;50868;24.150;-110.320;2023-08-07T03:11:35;33.30;97.10
64493;DHT22;50868;24.150;-110.320;2023-08-07T03:14:02;33.20;97.30
64493;DHT22;50868;24.150;-110.320;2023-08-07T03:16:29;33.10;97.50
64493;DHT22;50868;24.150;-110.320;2023-08-07T03:18:57;33.20;97.50
64493;DHT22;50868;24.150;-110.320;2023-08-07T03:21:25;33.10;97.50
64493;DHT22;50868;24.150;-110.320;2023-08-07T03:23:52;33.10;97.40
64493;DHT22;50868;24.150;-110.320;2023-08-07T03:26:19;33.10;97.60
64493;DHT22;50868;24.150;-110.320;2023-08-07T03:28:46;33.10;97.80
64493;DHT22;50868;24.150;-110.320;2023-08-07T03:31:15;33.10;97.80
64493;DHT22;50868;24.150;-110.320;2023-08-07T03:33:42;33.10;97.90
64493;DHT22;50868;24.150;-110.320;2023-08-07T03:36:09;32.90;98.30
64493;DHT22;50868;24.150;-110.320;2023-08-07T03:38:36;33.00;98.10
64493;DHT22;50868;24.150;-110.320;2023-08-07T03:41:03;33.00;98.20
64493;DHT22;50868;24.150;-110.320;2023-08-07T03:43:30;32.90;98.40
64493;DHT22;50868;24.150;-110.320;2023-08-07T03:45:57;33.00;98.50
64493;DHT22;50868;24.150;-110.320;2023-08-07T03:48:25;33.00;98.50
64493;DHT22;50868;24.150;-110.320;2023-08-07T03:50:52;32.80;98.90
64493;DHT22;50868;24.150;-110.320;2023-08-07T03:53:19;32.70;99.10
64493;DHT22;50868;24.150;-110.320;2023-08-07T03:55:55;32.50;99.40
64493;DHT22;50868;24.150;-110.320;2023-08-07T03:58:22;32.60;99.50
64493;DHT22;50868;24.150;-110.320;2023-08-07T04:00:51;32.60;99.60
64493;DHT22;50868;24.150;-110.320;2023-08-07T04:03:21;32.60;99.70
64493;DHT22;50868;24.150;-110.320;2023-08-07T04:05:52;32.60;99.70
64493;DHT22;50868;24.150;-110.320;2023-08-07T04:08:23;32.50;99.90
64493;DHT22;50868;24.150;-110.320;2023-08-07T04:11:04;32.50;99.90
64493;DHT22;50868;24.150;-110.320;2023-08-07T04:13:31;32.40;99.90
64493;DHT22;50868;24.150;-110.320;2023-08-07T04:15:59;32.40;99.90
64493;DHT22;50868;24.150;-110.320;2023-08-07T04:18:28;32.30;99.90
64493;DHT22;50868;24.150;-110.320;2023-08-07T04:20:56;32.40;99.90
64493;DHT22;50868;24.150;-110.320;2023-08-07T04:23:24;32.50;99.90
64493;DHT22;50868;24.150;-110.320;2023-08-07T04:25:52;32.50;99.90
64493;DHT22;50868;24.150;-110.320;2023-08-07T04:28:19;32.40;99.90
64493;DHT22;50868;24.150;-110.320;2023-08-07T04:30:49;32.30;99.90
64493;DHT22;50868;24.150;-110.320;2023-08-07T04:33:17;32.40;99.90
64493;DHT22;50868;24.150;-110.320;2023-08-07T04:35:44;32.30;99.90
64493;DHT22;50868;24.150;-110.320;2023-08-07T04:38:16;32.30;99.90
64493;DHT22;50868;24.150;-110.320;2023-08-07T04:40:50;32.40;99.90
64493;DHT22;50868;24.150;-110.320;2023-08-07T04:43:18;32.20;99.90
64493;DHT22;50868;24.150;-110.320;2023-08-07T04:45:48;32.20;99.90
64493;DHT22;50868;24.150;-110.320;2023-08-07T04:48:15;32.20;99.90
64493;DHT22;50868;24.150;-110.320;2023-08-07T04:50:44;32.20;99.90
64493;DHT22;50868;24.150;-110.320;2023-08-07T04:53:11;32.20;99.90
64493;DHT22;50868;24.150;-110.320;2023-08-07T04:55:38;32.10;99.90
64493;DHT22;50868;24.150;-110.320;2023-08-07T04:58:05;32.10;99.90
64493;DHT22;50868;24.150;-110.320;2023-08-07T05:00:33;32.10;99.90
64493;DHT22;50868;24.150;-110.320;2023-08-07T05:03:00;32.20;99.90
64493;DHT22;50868;24.150;-110.320;2023-08-07T05:05:28;32.10;99.90
64493;DHT22;50868;24.150;-110.320;2023-08-07T05:07:55;32.10;99.90
64493;DHT22;50868;24.150;-110.320;2023-08-07T05:10:23;32.00;99.90
64493;DHT22;50868;24.150;-110.320;2023-08-07T05:12:50;32.00;99.90
64493;DHT22;50868;24.150;-110.320;2023-08-07T05:15:25;31.90;99.90
64493;DHT22;50868;24.150;-110.320;2023-08-07T05:17:55;32.00;99.90
64493;DHT22;50868;24.150;-110.320;2023-08-07T05:20:22;31.80;99.90
64493;DHT22;50868;24.150;-110.320;2023-08-07T05:22:49;31.90;99.90
64493;DHT22;50868;24.150;-110.320;2023-08-07T05:27:26;32.00;99.90
64493;DHT22;50868;24.150;-110.320;2023-08-07T05:29:53;32.00;99.90
64493;DHT22;50868;24.150;-110.320;2023-08-07T05:32:20;32.00;99.90
64493;DHT22;50868;24.150;-110.320;2023-08-07T05:34:47;32.00;99.90
64493;DHT22;50868;24.150;-110.320;2023-08-07T05:37:14;32.00;99.90
64493;DHT22;50868;24.150;-110.320;2023-08-07T05:39:41;31.90;99.90
64493;DHT22;50868;24.150;-110.320;2023-08-07T05:42:09;31.80;99.90
64493;DHT22;50868;24.150;-110.320;2023-08-07T05:44:36;31.80;99.90
64493;DHT22;50868;24.150;-110.320;2023-08-07T05:47:03;31.90;99.90
64493;DHT22;50868;24.150;-110.320;2023-08-07T05:49:31;31.90;99.90
64493;DHT22;50868;24.150;-110.320;2023-08-07T05:51:58;31.80;99.90
64493;DHT22;50868;24.150;-110.320;2023-08-07T06:06:14;31.20;99.90
64493;DHT22;50868;24.150;-110.320;2023-08-07T06:08:41;31.10;99.90
64493;DHT22;50868;24.150;-110.320;2023-08-07T06:11:08;31.20;99.90
64493;DHT22;50868;24.150;-110.320;2023-08-07T06:13:36;31.20;99.90
64493;DHT22;50868;24.150;-110.320;2023-08-07T06:16:03;31.20;99.90
64493;DHT22;50868;24.150;-110.320;2023-08-07T06:18:30;31.30;99.90
64493;DHT22;50868;24.150;-110.320;2023-08-07T06:20:57;31.30;99.90
64493;DHT22;50868;24.150;-110.320;2023-08-07T06:23:24;31.50;99.90
64493;DHT22;50868;24.150;-110.320;2023-08-07T06:25:51;31.60;99.90
64493;DHT22;50868;24.150;-110.320;2023-08-07T06:28:18;31.60;99.90
64493;DHT22;50868;24.150;-110.320;2023-08-07T06:30:45;31.50;99.90
64493;DHT22;50868;24.150;-110.320;2023-08-07T06:33:12;31.40;99.90
64493;DHT22;50868;24.150;-110.320;2023-08-07T06:35:40;31.40;99.90
64493;DHT22;50868;24.150;-110.320;2023-08-07T06:38:09;31.50;99.90
64493;DHT22;50868;24.150;-110.320;2023-08-07T06:40:36;31.40;99.90
64493;DHT22;50868;24.150;-110.320;2023-08-07T06:43:04;31.50;99.90
64493;DHT22;50868;24.150;-110.320;2023-08-07T06:45:31;31.50;99.90
64493;DHT22;50868;24.150;-110.320;2023-08-07T06:47:58;31.50;99.90
64493;DHT22;50868;24.150;-110.320;2023-08-07T06:50:25;31.50;99.90
64493;DHT22;50868;24.150;-110.320;2023-08-07T06:52:52;31.40;99.90
64493;DHT22;50868;24.150;-110.320;2023-08-07T06:55:20;31.30;99.90
64493;DHT22;50868;24.150;-110.320;2023-08-07T06:57:48;31.20;99.90
64493;DHT22;50868;24.150;-110.320;2023-08-07T07:00:16;31.30;99.90
64493;DHT22;50868;24.150;-110.320;2023-08-07T07:02:43;31.30;99.90
64493;DHT22;50868;24.150;-110.320;2023-08-07T07:05:10;31.40;99.90
64493;DHT22;50868;24.150;-110.320;2023-08-07T07:07:38;31.30;99.90
64493;DHT22;50868;24.150;-110.320;2023-08-07T07:10:05;31.30;99.90
64493;DHT22;50868;24.150;-110.320;2023-08-07T07:12:33;31.30;99.90
64493;DHT22;50868;24.150;-110.320;2023-08-07T07:15:00;31.30;99.90
64493;DHT22;50868;24.150;-110.320;2023-08-07T07:17:27;31.00;99.90
64493;DHT22;50868;24.150;-110.320;2023-08-07T07:19:54;31.00;99.90
64493;DHT22;50868;24.150;-110.320;2023-08-07T07:22:23;31.00;99.90
64493;DHT22;50868;24.150;-110.320;2023-08-07T07:24:50;31.00;99.90
64493;DHT22;50868;24.150;-110.320;2023-08-07T07:27:17;31.00;99.90
64493;DHT22;50868;24.150;-110.320;2023-08-07T07:29:44;30.90;99.90
64493;DHT22;50868;24.150;-110.320;2023-08-07T07:32:11;30.80;99.90
64493;DHT22;50868;24.150;-110.320;2023-08-07T07:34:38;30.90;99.90
64493;DHT22;50868;24.150;-110.320;2023-08-07T07:37:05;30.90;99.90
64493;DHT22;50868;24.150;-110.320;2023-08-07T07:39:34;31.10;99.90
64493;DHT22;50868;24.150;-110.320;2023-08-07T07:42:01;31.00;99.90
64493;DHT22;50868;24.150;-110.320;2023-08-07T07:44:30;30.90;99.90
64493;DHT22;50868;24.150;-110.320;2023-08-07T07:46:57;31.00;99.90
64493;DHT22;50868;24.150;-110.320;2023-08-07T07:49:24;30.90;99.90
64493;DHT22;50868;24.150;-110.320;2023-08-07T07:51:51;30.90;99.90
64493;DHT22;50868;24.150;-110.320;2023-08-07T07:54:18;30.80;99.90
64493;DHT22;50868;24.150;-110.320;2023-08-07T07:56:46;30.70;99.90
64493;DHT22;50868;24.150;-110.320;2023-08-07T07:59:13;30.80;99.90
64493;DHT22;50868;24.150;-110.320;2023-08-07T08:01:40;30.80;99.90
64493;DHT22;50868;24.150;-110.320;2023-08-07T08:04:07;30.80;99.90
64493;DHT22;50868;24.150;-110.320;2023-08-07T08:06:36;30.90;99.90
64493;DHT22;50868;24.150;-110.320;2023-08-07T08:09:03;30.90;99.90
64493;DHT22;50868;24.150;-110.320;2023-08-07T08:11:31;30.80;99.90
64493;DHT22;50868;24.150;-110.320;2023-08-07T08:13:58;30.80;99.90
64493;DHT22;50868;24.150;-110.320;2023-08-07T08:16:25;30.80;99.90
64493;DHT22;50868;24.150;-110.320;2023-08-07T08:18:52;30.80;99.90
64493;DHT22;50868;24.150;-110.320;2023-08-07T08:21:19;30.90;99.90
64493;DHT22;50868;24.150;-110.320;2023-08-07T08:23:46;30.90;99.90
64493;DHT22;50868;24.150;-110.320;2023-08-07T08:26:13;30.90;99.90
64493;DHT22;50868;24.150;-110.320;2023-08-07T08:28:40;30.90;99.90
64493;DHT22;50868;24.150;-110.320;2023-08-07T08:31:07;30.80;99.90
64493;DHT22;50868;24.150;-110.320;2023-08-07T08:33:35;30.70;99.90
64493;DHT22;50868;24.150;-110.320;2023-08-07T08:36:02;30.70;99.90
64493;DHT22;50868;24.150;-110.320;2023-08-07T08:38:29;30.60;99.90
64493;DHT22;50868;24.150;-110.320;2023-08-07T08:41:02;30.70;99.90
64493;DHT22;50868;24.150;-110.320;2023-08-07T08:43:34;30.70;99.90
64493;DHT22;50868;24.150;-110.320;2023-08-07T08:46:05;30.60;99.90
64493;DHT22;50868;24.150;-110.320;2023-08-07T08:48:35;30.70;99.90
64493;DHT22;50868;24.150;-110.320;2023-08-07T08:51:05;30.70;99.90
64493;DHT22;50868;24.150;-110.320;2023-08-07T08:53:33;30.70;99.90
64493;DHT22;50868;24.150;-110.320;2023-08-07T08:56:02;30.80;99.90
64493;DHT22;50868;24.150;-110.320;2023-08-07T08:58:29;30.60;99.90
64493;DHT22;50868;24.150;-110.320;2023-08-07T09:00:57;30.60;99.90
64493;DHT22;50868;24.150;-110.320;2023-08-07T09:03:25;30.60;99.90
64493;DHT22;50868;24.150;-110.320;2023-08-07T09:05:53;30.60;99.90
64493;DHT22;50868;24.150;-110.320;2023-08-07T09:08:22;30.40;99.90
64493;DHT22;50868;24.150;-110.320;2023-08-07T09:10:51;30.50;99.90
64493;DHT22;50868;24.150;-110.320;2023-08-07T09:13:20;30.50;99.90
64493;DHT22;50868;24.150;-110.320;2023-08-07T09:15:51;30.50;99.90
64493;DHT22;50868;24.150;-110.320;2023-08-07T09:18:18;30.50;99.90
64493;DHT22;50868;24.150;-110.320;2023-08-07T09:20:48;30.40;99.90
64493;DHT22;50868;24.150;-110.320;2023-08-07T09:23:16;30.40;99.90
64493;DHT22;50868;24.150;-110.320;2023-08-07T09:25:43;30.40;99.90
64493;DHT22;50868;24.150;-110.320;2023-08-07T09:28:11;30.50;99.90
64493;DHT22;50868;24.150;-110.320;2023-08-07T09:30:39;30.50;99.90
64493;DHT22;50868;24.150;-110.320;2023-08-07T09:33:10;30.70;99.90
64493;DHT22;50868;24.150;-110.320;2023-08-07T09:35:37;30.70;99.90
64493;DHT22;50868;24.150;-110.320;2023-08-07T09:38:07;30.60;99.90
64493;DHT22;50868;24.150;-110.320;2023-08-07T09:40:35;30.50;99.90
64493;DHT22;50868;24.150;-110.320;2023-08-07T09:43:02;30.70;99.90
64493;DHT22;50868;24.150;-110.320;2023-08-07T09:45:29;30.60;99.90
64493;DHT22;50868;24.150;-110.320;2023-08-07T09:48:02;30.50;99.90
64493;DHT22;50868;24.150;-110.320;2023-08-07T09:50:30;30.60;99.90
64493;DHT22;50868;24.150;-110.320;2023-08-07T09:52:58;30.60;99.90
64493;DHT22;50868;24.150;-110.320;2023-08-07T09:55:26;30.70;99.90
64493;DHT22;50868;24.150;-110.320;2023-08-07T09:57:54;30.70;99.90
64493;DHT22;50868;24.150;-110.320;2023-08-07T10:00:22;30.70;99.90
64493;DHT22;50868;24.150;-110.320;2023-08-07T10:02:50;30.70;99.90
64493;DHT22;50868;24.150;-110.320;2023-08-07T10:05:17;30.60;99.90
64493;DHT22;50868;24.150;-110.320;2023-08-07T10:07:44;30.50;99.90
64493;DHT22;50868;24.150;-110.320;2023-08-07T10:10:13;30.60;99.90
64493;DHT22;50868;24.150;-110.320;2023-08-07T10:12:41;30.50;99.90
64493;DHT22;50868;24.150;-110.320;2023-08-07T10:15:12;30.50;99.90
64493;DHT22;50868;24.150;-110.320;2023-08-07T10:17:40;30.80;99.90
64493;DHT22;50868;24.150;-110.320;2023-08-07T10:20:08;30.80;99.90
64493;DHT22;50868;24.150;-110.320;2023-08-07T10:22:38;30.80;99.90
64493;DHT22;50868;24.150;-110.320;2023-08-07T10:25:07;30.70;99.90
64493;DHT22;50868;24.150;-110.320;2023-08-07T10:27:37;30.70;99.90
64493;DHT22;50868;24.150;-110.320;2023-08-07T10:30:07;30.70;99.90
64493;DHT22;50868;24.150;-110.320;2023-08-07T10:32:35;30.60;99.90
64493;DHT22;50868;24.150;-110.320;2023-08-07T10:35:06;30.70;99.90
64493;DHT22;50868;24.150;-110.320;2023-08-07T10:37:39;30.60;99.90
64493;DHT22;50868;24.150;-110.320;2023-08-07T10:40:08;30.60;99.90
64493;DHT22;50868;24.150;-110.320;2023-08-07T10:42:55;30.70;99.90
64493;DHT22;50868;24.150;-110.320;2023-08-07T10:45:25;30.60;99.90
64493;DHT22;50868;24.150;-110.320;2023-08-07T10:50:32;30.50;99.90
64493;DHT22;50868;24.150;-110.320;2023-08-07T10:53:01;30.50;99.90
64493;DHT22;50868;24.150;-110.320;2023-08-07T10:55:43;30.50;99.90
64493;DHT22;50868;24.150;-110.320;2023-08-07T10:58:34;30.40;99.90
64493;DHT22;50868;24.150;-110.320;2023-08-07T11:04:10;30.40;99.90
64493;DHT22;50868;24.150;-110.320;2023-08-07T11:06:39;30.30;99.90
64493;DHT22;50868;24.150;-110.320;2023-08-07T11:09:08;30.30;99.90
64493;DHT22;50868;24.150;-110.320;2023-08-07T11:11:44;30.30;99.90
64493;DHT22;50868;24.150;-110.320;2023-08-07T11:14:13;30.30;99.90
64493;DHT22;50868;24.150;-110.320;2023-08-07T11:16:40;30.40;99.90
64493;DHT22;50868;24.150;-110.320;2023-08-07T11:19:08;30.40;99.90
64493;DHT22;50868;24.150;-110.320;2023-08-07T11:21:36;30.40;99.90
64493;DHT22;50868;24.150;-110.320;2023-08-07T11:24:04;30.40;99.90
64493;DHT22;50868;24.150;-110.320;2023-08-07T11:26:31;30.40;99.90
64493;DHT22;50868;24.150;-110.320;2023-08-07T11:28:58;30.40;99.90
64493;DHT22;50868;24.150;-110.320;2023-08-07T11:31:26;30.40;99.90
64493;DHT22;50868;24.150;-110.320;2023-08-07T11:33:57;30.30;99.90
64493;DHT22;50868;24.150;-110.320;2023-08-07T11:36:26;30.30;99.90
64493;DHT22;50868;24.150;-110.320;2023-08-07T11:38:53;30.30;99.90
64493;DHT22;50868;24.150;-110.320;2023-08-07T11:41:20;30.30;99.90
64493;DHT22;50868;24.150;-110.320;2023-08-07T11:43:47;30.30;99.90
64493;DHT22;50868;24.150;-110.320;2023-08-07T11:46:15;30.30;99.90
64493;DHT22;50868;24.150;-110.320;2023-08-07T11:48:44;30.30;99.90
64493;DHT22;50868;24.150;-110.320;2023-08-07T11:51:11;30.30;99.90
64493;DHT22;50868;24.150;-110.320;2023-08-07T11:53:40;30.30;99.90
64493;DHT22;50868;24.150;-110.320;2023-08-07T11:56:10;30.30;99.90
64493;DHT22;50868;24.150;-110.320;2023-08-07T11:58:40;30.30;99.90
64493;DHT22;50868;24.150;-110.320;2023-08-07T12:01:12;30.40;99.90
64493;DHT22;50868;24.150;-110.320;2023-08-07T12:03:51;30.30;99.90
64493;DHT22;50868;24.150;-110.320;2023-08-07T12:06:19;30.30;99.90
64493;DHT22;50868;24.150;-110.320;2023-08-07T12:08:49;30.30;99.90
64493;DHT22;50868;24.150;-110.320;2023-08-07T12:11:20;30.40;99.90
64493;DHT22;50868;24.150;-110.320;2023-08-07T12:13:50;30.30;99.90
64493;DHT22;50868;24.150;-110.320;2023-08-07T12:16:17;30.30;99.90
64493;DHT22;50868;24.150;-110.320;2023-08-07T12:18:46;30.30;99.90
64493;DHT22;50868;24.150;-110.320;2023-08-07T12:21:19;30.20;99.90
64493;DHT22;50868;24.150;-110.320;2023-08-07T12:23:47;30.30;99.90
64493;DHT22;50868;24.150;-110.320;2023-08-07T12:26:15;30.40;99.90
64493;DHT22;50868;24.150;-110.320;2023-08-07T12:28:42;30.40;99.90
64493;DHT22;50868;24.150;-110.320;2023-08-07T12:31:10;30.40;99.90
64493;DHT22;50868;24.150;-110.320;2023-08-07T12:33:37;30.30;99.90
64493;DHT22;50868;24.150;-110.320;2023-08-07T12:36:04;30.20;99.90
64493;DHT22;50868;24.150;-110.320;2023-08-07T12:38:31;30.10;99.90
64493;DHT22;50868;24.150;-110.320;2023-08-07T12:40:59;30.10;99.90
64493;DHT22;50868;24.150;-110.320;2023-08-07T12:43:26;30.20;99.90
64493;DHT22;50868;24.150;-110.320;2023-08-07T12:45:53;30.20;99.90
64493;DHT22;50868;24.150;-110.320;2023-08-07T12:48:20;30.20;99.90
64493;DHT22;50868;24.150;-110.320;2023-08-07T12:50:47;30.20;99.90
64493;DHT22;50868;24.150;-110.320;2023-08-07T12:53:14;30.10;99.90
64493;DHT22;50868;24.150;-110.320;2023-08-07T12:55:41;30.00;99.90
64493;DHT22;50868;24.150;-110.320;2023-08-07T12:58:08;30.00;99.90
64493;DHT22;50868;24.150;-110.320;2023-08-07T13:00:35;30.10;99.90
64493;DHT22;50868;24.150;-110.320;2023-08-07T13:03:02;30.10;99.90
64493;DHT22;50868;24.150;-110.320;2023-08-07T13:05:29;30.00;99.90
64493;DHT22;50868;24.150;-110.320;2023-08-07T13:07:57;30.00;99.90
64493;DHT22;50868;24.150;-110.320;2023-08-07T13:10:25;30.10;99.90
64493;DHT22;50868;24.150;-110.320;2023-08-07T13:12:54;30.10;99.90
64493;DHT22;50868;24.150;-110.320;2023-08-07T13:15:21;30.00;99.90
64493;DHT22;50868;24.150;-110.320;2023-08-07T13:17:48;30.10;99.90
64493;DHT22;50868;24.150;-110.320;2023-08-07T13:20:15;30.20;99.90
64493;DHT22;50868;24.150;-110.320;2023-08-07T13:22:44;30.20;99.90
64493;DHT22;50868;24.150;-110.320;2023-08-07T13:25:12;30.30;99.90
64493;DHT22;50868;24.150;-110.320;2023-08-07T13:27:40;30.30;99.90
64493;DHT22;50868;24.150;-110.320;2023-08-07T13:30:08;30.20;99.90
64493;DHT22;50868;24.150;-110.320;2023-08-07T13:32:36;30.20;99.90
64493;DHT22;50868;24.150;-110.320;2023-08-07T13:35:04;30.20;99.90
64493;DHT22;50868;24.150;-110.320;2023-08-07T13:37:31;30.30;99.90
64493;DHT22;50868;24.150;-110.320;2023-08-07T13:41:13;30.40;99.90
64493;DHT22;50868;24.150;-110.320;2023-08-07T13:43:40;30.40;99.90
64493;DHT22;50868;24.150;-110.320;2023-08-07T13:46:07;30.50;99.90
64493;DHT22;50868;24.150;-110.320;2023-08-07T13:48:34;30.60;99.90
64493;DHT22;50868;24.150;-110.320;2023-08-07T13:51:01;30.50;99.90
64493;DHT22;50868;24.150;-110.320;2023-08-07T13:53:31;30.60;99.90
64493;DHT22;50868;24.150;-110.320;2023-08-07T13:55:58;30.70;99.90
64493;DHT22;50868;24.150;-110.320;2023-08-07T13:58:25;30.80;99.90
64493;DHT22;50868;24.150;-110.320;2023-08-07T14:00:52;30.80;99.90
64493;DHT22;50868;24.150;-110.320;2023-08-07T14:03:19;30.70;99.90
64493;DHT22;50868;24.150;-110.320;2023-08-07T14:05:46;30.70;99.90
64493;DHT22;50868;24.150;-110.320;2023-08-07T14:08:14;30.90;99.90
64493;DHT22;50868;24.150;-110.320;2023-08-07T14:10:41;30.90;99.90
64493;DHT22;50868;24.150;-110.320;2023-08-07T14:13:08;31.00;99.90
64493;DHT22;50868;24.150;-110.320;2023-08-07T14:15:36;31.10;99.90
64493;DHT22;50868;24.150;-110.320;2023-08-07T14:18:03;31.20;99.90
64493;DHT22;50868;24.150;-110.320;2023-08-07T14:20:30;31.40;99.90
64493;DHT22;50868;24.150;-110.320;2023-08-07T14:22:57;31.50;99.90
64493;DHT22;50868;24.150;-110.320;2023-08-07T14:25:25;31.40;99.90
64493;DHT22;50868;24.150;-110.320;2023-08-07T14:27:52;31.40;99.90
64493;DHT22;50868;24.150;-110.320;2023-08-07T14:30:20;31.50;99.90
64493;DHT22;50868;24.150;-110.320;2023-08-07T14:32:47;31.60;99.90
64493;DHT22;50868;24.150;-110.320;2023-08-07T14:35:14;31.60;99.90
64493;DHT22;50868;24.150;-110.320;2023-08-07T14:37:42;31.70;99.90
64493;DHT22;50868;24.150;-110.320;2023-08-07T14:40:10;31.70;99.90
64493;DHT22;50868;24.150;-110.320;2023-08-07T14:42:37;31.70;99.90
64493;DHT22;50868;24.150;-110.320;2023-08-07T14:45:05;31.90;99.90
64493;DHT22;50868;24.150;-110.320;2023-08-07T14:47:32;31.90;99.90
64493;DHT22;50868;24.150;-110.320;2023-08-07T14:49:59;31.90;99.90
64493;DHT22;50868;24.150;-110.320;2023-08-07T14:52:26;32.10;99.90
64493;DHT22;50868;24.150;-110.320;2023-08-07T14:54:53;32.40;99.90
64493;DHT22;50868;24.150;-110.320;2023-08-07T14:57:23;32.30;99.90
64493;DHT22;50868;24.150;-110.320;2023-08-07T14:59:50;32.30;99.90
64493;DHT22;50868;24.150;-110.320;2023-08-07T15:02:17;32.40;99.90
64493;DHT22;50868;24.150;-110.320;2023-08-07T15:04:44;32.60;99.90
64493;DHT22;50868;24.150;-110.320;2023-08-07T15:07:12;32.80;99.90
64493;DHT22;50868;24.150;-110.320;2023-08-07T15:09:39;32.90;99.90
64493;DHT22;50868;24.150;-110.320;2023-08-07T15:12:07;32.90;99.90
64493;DHT22;50868;24.150;-110.320;2023-08-07T15:14:34;32.80;99.90
64493;DHT22;50868;24.150;-110.320;2023-08-07T15:17:01;32.80;99.90
64493;DHT22;50868;24.150;-110.320;2023-08-07T15:19:28;32.90;99.90
64493;DHT22;50868;24.150;-110.320;2023-08-07T15:21:55;32.90;99.90
64493;DHT22;50868;24.150;-110.320;2023-08-07T15:24:22;33.00;99.90
64493;DHT22;50868;24.150;-110.320;2023-08-07T15:26:49;32.90;99.90